• Join FlightAware (Why Join?)
  • Login
  • US Flag 
12:10AM EDT


 

Airport Tracker/Info


-or-


 

Live Flight TrackerFlight Track Log ✈ TRS273 ✈ 23-Sep-2013 ✈ KDCA - KMKE

Flight Track Log - Related Links

Times and Time Zones

All times are in EDT time to prevent confusion due to time zone crossing. See the TRS273 flight status page for this flight to view local times or setup timezone preferences in your user account.

Time Position Orientation Groundspeed Altitude Reporting Facility
EDT Latitude Longitude Course Direction KTS MPH feet Rate Location/Type
06:32AM 38.8833 -77.0667 287° West 181 208 2,200  Level Potomac TRACON
06:33AM 38.9333 -77.1167 322° Northwest 243 280 4,200 2,280 Climbing Potomac TRACON
06:34AM 38.9833 -77.1667 322° Northwest 261 300 6,400 2,820 Climbing Potomac TRACON
06:35AM 39.0333 -77.2167 322° Northwest 271 312 9,300 1,980 Climbing Potomac TRACON
06:37AM 39.0956 -77.5844 287° West  Level Estimated
06:37AM 39.1800 -77.3400 327° Northwest 321 369 12,400  Level Washington Center
06:38AM 39.2453 -77.4381 311° West 340 391 14,400 2,280 Climbing Washington Center
06:39AM 39.3125 -77.5364 311° West 354 407 16,900 2,220 Climbing Washington Center
06:40AM 39.3817 -77.6375 312° West 372 428 18,900 2,160 Climbing Washington Center
06:41AM 39.4528 -77.7392 312° West 377 434 21,300 2,160 Climbing Washington Center
06:42AM 39.5219 -77.8406 312° West 394 453 23,300 1,920 Climbing Washington Center
06:43AM 39.5694 -77.9714 295° West 399 459 25,200 1,560 Climbing Washington Center
06:45AM 39.6556 -78.2547 292° West 417 480 27,900 1,440 Climbing Cleveland Center
06:46AM 39.7006 -78.4042 291° West 435 501 29,500 1,800 Climbing Cleveland Center
06:47AM 39.7431 -78.5500 291° West 436 502 31,600 1,740 Climbing Cleveland Center
06:48AM 39.7803 -78.6792 291° West 430 495 33,100 1,620 Climbing Cleveland Center
06:49AM 39.8525 -78.8289 302° West 410 472 34,900 900 Climbing Cleveland Center
06:50AM 39.9125 -78.9567 302° West 414 476 35,000 480 Climbing Cleveland Center
06:51AM 39.9658 -79.0692 302° West 413 475 36,000 480 Climbing Cleveland Center
06:52AM 40.0231 -79.1894 302° West 397 457 36,000  Level Cleveland Center
06:53AM 40.0811 -79.3092 302° West 395 455 36,000  Level Cleveland Center
06:54AM 40.1494 -79.4569 301° West 398 458 36,000  Level Cleveland Center
06:55AM 40.2064 -79.5789 301° West 396 456 36,000  Level Cleveland Center
06:56AM 40.2636 -79.7011 302° West 395 455 36,000  Level Cleveland Center
06:57AM 40.3208 -79.8247 301° West 399 459 36,000  Level Cleveland Center
06:58AM 40.3772 -79.9486 301° West 398 458 36,000  Level Cleveland Center
06:59AM 40.4417 -80.0861 302° West 398 458 36,000  Level Cleveland Center
07:00AM 40.4989 -80.2122 301° West 402 463 36,000  Level Cleveland Center
07:01AM 40.5567 -80.3378 301° West 403 464 36,000  Level Cleveland Center
07:02AM 40.6136 -80.4667 300° West 403 464 36,000  Level Cleveland Center
07:03AM 40.6722 -80.5942 301° West 403 464 36,000  Level Cleveland Center
07:04AM 40.7278 -80.7197 300° West 405 466 36,000  Level Cleveland Center
07:05AM 40.7842 -80.8456 301° West 402 463 36,000  Level Cleveland Center
07:06AM 40.8403 -80.9722 300° West 400 460 36,000  Level Cleveland Center
07:07AM 40.9158 -81.0944 309° West 404 465 36,000  Level Cleveland Center
07:08AM 41.0003 -81.2308 309° West 406 467 36,000  Level Cleveland Center
07:09AM 41.0706 -81.3467 309° West 402 463 36,000  Level Cleveland Center
07:10AM 41.1375 -81.4556 309° West 404 465 36,000  Level Cleveland Center
07:11AM 41.2083 -81.5717 309° West 404 465 36,000  Level Cleveland Center
07:12AM 41.2800 -81.6869 310° West 405 466 36,000  Level Cleveland Center
07:13AM 41.3497 -81.8061 308° West 408 470 36,000  Level Cleveland Center
07:14AM 41.4350 -81.9444 309° West 409 471 36,000  Level Cleveland Center
07:15AM 41.5067 -82.0631 309° West 407 468 36,000  Level Cleveland Center
07:16AM 41.5792 -82.1817 309° West 408 470 36,000  Level Cleveland Center
07:17AM 41.6508 -82.3031 308° West 412 474 36,000  Level Cleveland Center
07:18AM 41.7128 -82.4069 309° West 410 472 36,000  Level Cleveland Center
07:19AM 41.7975 -82.5497 309° West 409 471 36,000  Level Cleveland Center
07:20AM 41.8694 -82.6689 309° West 413 475 36,000  Level Cleveland Center
07:21AM 41.9394 -82.7894 308° West 411 473 36,000  Level Cleveland Center
07:22AM 42.0094 -82.9097 308° West 409 471 36,000  Level Cleveland Center
07:23AM 42.0792 -83.0311 308° West 411 473 36,000  Level Cleveland Center
07:24AM 42.1492 -83.1519 308° West 412 474 36,000  Level Cleveland Center
07:25AM 42.2322 -83.2956 308° West 412 474 36,000  Level Cleveland Center
07:27AM 42.3050 -83.4183 309° West 415 478 36,000  Level Cleveland Center
07:28AM 42.3767 -83.5422 308° West 416 479 36,000  Level Cleveland Center
07:29AM 42.4406 -83.6564 307° West 418 481 36,000  Level Cleveland Center
07:30AM 42.5108 -83.7797 308° West 416 479 36,000  Level Cleveland Center
07:31AM 42.5953 -83.9283 308° West 416 479 36,000  Level Cleveland Center
07:32AM 42.6650 -84.0525 307° West 416 479 36,000  Level Cleveland Center
07:33AM 42.7361 -84.1769 308° West 417 480 36,000  Level Cleveland Center
07:34AM 42.8044 -84.3006 307° West 412 474 36,000  Level Cleveland Center
07:35AM 42.8817 -84.4344 308° West 415 478 36,000  Level Cleveland Center
07:36AM 42.9492 -84.5578 307° West 409 471 36,000  Level Cleveland Center
07:37AM 43.0178 -84.6833 307° West 413 475 36,000  Level Cleveland Center
07:38AM 43.0869 -84.8072 307° West 412 474 36,000  Level Cleveland Center
07:39AM 43.1383 -84.9458 297° West 413 475 36,000  Level Cleveland Center
07:40AM 43.1489 -85.1028 275° West 419 482 36,000 -480 Level Cleveland Center
07:41AM 43.1522 -85.2619 272° West 419 482 35,100 -1,020 Descending Cleveland Center
07:42AM 43.1575 -85.4553 272° West 426 490 34,000 -1,080 Descending Cleveland Center
07:43AM 43.1611 -85.6186 272° West 432 497 32,900 -2,040 Descending Cleveland Center
07:44AM 43.1653 -85.7839 272° West 437 503 29,900 -2,700 Descending Cleveland Center
07:45AM 43.1694 -85.9447 272° West 432 497 27,400 -2,100 Descending Cleveland Center
07:46AM 43.1708 -86.0994 271° West 419 482 25,600 -1,620 Descending Cleveland Center
07:47AM 43.1667 -86.2864 268° West 417 480 24,100 -1,260 Descending Cleveland Center
07:48AM 43.1622 -86.4961 268° West 402 463 22,500 -1,080 Descending Chicago Center
07:50AM 43.1603 -86.6478 269° West 401 461 21,500 -1,080 Descending Chicago Center
07:51AM 43.1567 -86.7997 268° West 403 464 20,400 -1,320 Descending Chicago Center
07:52AM 43.1539 -86.9467 269° West 392 451 18,900 -1,620 Descending Chicago Center
07:53AM 43.1492 -87.1192 268° West 383 441 17,100 -1,860 Descending Chicago Center
07:54AM 43.1461 -87.2603 268° West 373 429 15,100 -1,860 Descending Chicago Center
07:55AM 43.1433 -87.3797 268° West 360 414 13,300 -1,920 Descending Chicago Center
07:56AM 43.1264 -87.5342 262° West 345 397 11,200 -1,740 Descending Chicago Center
07:57AM 43.0931 -87.6431 247° West 315 362 9,800 -1,680 Descending Chicago Center
07:58AM 43.0592 -87.7444 245° Southwest 298 343 7,800 -1,380 Descending Chicago Center
07:59AM 43.0289 -87.8406 247° West 279 321 7,000 -420 Descending Chicago Center
08:00AM 43.0144 -87.9242 257° West 232 267 7,000 -360 Level Chicago Center
08:01AM 42.9969 -88.0125 255° West 237 273 6,300 -1,080 Descending Chicago Center
08:02AM 42.9831 -88.0981 258° West 232 267 4,900 -1,140 Descending Chicago Center
08:03AM 42.9678 -88.1806 256° West 229 264 4,000 -480 Descending Chicago Center
08:04AM 42.9083 -88.2056 197° South 229 264 4,000 -540 Level Chicago Center
08:05AM 42.8814 -88.1461 122° Southeast 222 255 3,000 -540 Descending Chicago Center
08:06AM 42.9000 -88.0767 70° East 205 236 3,000 -420 Level Chicago Center
08:07AM 42.9153 -88.0089 73° East 195 224 2,200 -780 Descending Chicago Center
08:08AM 42.9264 -87.9631 72° East 153 176 1,500 -720 Descending Chicago Center